PDT,Max TemperatureF,Mean TemperatureF,Min TemperatureF,Max Dew PointF,MeanDew PointF,Min DewpointF,Max Humidity, Mean Humidity, Min Humidity, Max Sea Level PressureIn, Mean Sea Level PressureIn, Min Sea Level PressureIn, Max VisibilityMiles, Mean VisibilityMiles, Min VisibilityMiles, Max Wind SpeedMPH, Mean Wind SpeedMPH, Max Gust SpeedMPH,PrecipitationIn, CloudCover, Events, WindDirDegrees
2013-5-1,83,64,45,48,33,12,93,52,10,30.02,29.89,29.81,,,,28,10,36,0.00,,,47
2013-5-2,79,69,58,27,1,-8,35,20,4,30.10,30.02,29.98,,,,36,21,45,0.00,,,58
2013-5-3,86,62,37,25,13,5,33,19,5,30.00,29.87,29.78,,,,24,9,31,0.00,,,49
2013-5-4,79,59,38,35,24,13,44,26,8,29.79,29.74,29.70,,,,25,10,31,0.00,,,225
2013-5-5,66,50,34,49,42,32,92,68,44,29.91,29.85,29.78,,,,22,7,28,0.00,,,234
2013-5-6,55,53,50,53,49,47,96,91,86,29.95,29.92,29.86,,,,22,10,26,0.22,,,231
2013-5-7,58,54,49,49,44,41,89,73,57,30.02,29.95,29.92,,,,22,12,28,0.05,,,244
2013-5-8,63,51,39,48,43,37,93,73,52,30.04,30.01,29.99,,,,16,6,21,0.00,,,276
2013-5-9,68,54,40,49,46,38,93,71,49,30.03,29.99,29.95,,,,20,7,25,0.00,,,230
2013-5-10,81,66,50,49,45,34,89,54,19,30.02,29.98,29.93,,,,18,5,24,0.00,,,310
2013-5-11,88,67,46,47,37,28,80,46,12,30.07,29.99,29.95,,,,26,10,35,0.00,,,53
2013-5-12,93,72,50,42,32,26,54,32,10,30.03,29.98,29.91,,,,22,8,28,0.00,,,54
2013-5-13,98,74,50,41,35,26,50,29,8,29.96,29.92,29.85,,,,23,7,29,0.00,,,359
2013-5-14,90,69,47,46,35,21,66,38,9,29.94,29.90,29.88,,,,22,9,28,0.00,,,280
2013-5-15,80,60,39,49,37,23,79,48,17,29.96,29.93,29.90,,,,21,8,24,0.00,,,246
2013-5-16,78,60,41,48,39,28,83,50,16,29.90,29.87,29.83,,,,18,8,23,0.00,,,217
2013-5-17,72,57,41,50,46,39,89,65,40,29.95,29.89,29.83,,,,22,7,26,0.00,,,233
2013-5-18,75,63,50,48,46,41,89,61,33,29.96,29.93,29.89,,,,22,11,41,0.00,,,225
2013-5-19,80,60,39,49,44,38,92,62,32,29.94,29.88,29.82,,,,21,8,26,0.00,,,195
2013-5-20,89,67,44,52,38,25,86,49,11,29.88,29.86,29.83,,,,28,10,35,0.00,,,56
2013-5-21,86,67,47,52,39,28,54,35,15,29.87,29.83,29.78,,,,20,9,25,0.00,,,228
2013-5-22,79,60,41,47,39,8,80,44,8,29.79,29.75,29.73,,,,21,9,28,0.00,,,221
2013-5-23,72,58,44,46,40,31,86,54,22,29.88,29.81,29.75,,,,23,10,29,0.00,,,248
2013-5-24,74,53,32,43,35,25,89,54,18,29.92,29.89,29.85,,,,18,8,24,0.00,,,191
2013-5-25,75,55,35,48,36,22,79,50,20,29.94,29.92,29.90,,,,21,9,24,0.00,,,217
2013-5-26,74,54,34,46,39,32,92,59,25,29.97,29.95,29.92,,,,21,8,25,0.00,,,185
2013-5-27,78,59,39,49,42,36,82,57,31,29.94,29.86,29.82,,,,22,9,30,0.00,,,236
2013-5-28,74,57,40,52,46,37,89,64,38,29.81,29.75,29.72,,,,23,10,30,0.00,,,227
2013-5-29,84,64,44,50,46,41,89,58,26,29.75,29.71,29.68,,,,24,9,29,0.00,,,211
2013-5-30,84,65,46,51,45,41,86,55,24,29.82,29.76,29.71,,,,18,9,23,0.00,,,200
2013-5-31,90,67,43,53,45,33,86,52,17,29.83,29.79,29.74,,,,18,7,23,0.00,,,182